createdAt,value
2022-10-13T00:01:59.647Z,8.75
2022-10-13T00:07:01.428Z,8.15
2022-10-13T00:12:03.343Z,7.88
2022-10-13T00:17:05.347Z,8.77
2022-10-13T00:22:07.113Z,8.45
2022-10-13T00:27:08.835Z,9.13
2022-10-13T00:32:10.627Z,9.93
2022-10-13T00:37:12.452Z,9.57
2022-10-13T00:42:14.423Z,9.55
2022-10-13T00:47:16.397Z,11.30
2022-10-13T00:52:20.359Z,10.02
2022-10-13T00:57:23.220Z,10.93
2022-10-13T01:02:32.199Z,9.60
2022-10-13T01:07:34.839Z,9.38
2022-10-13T01:12:56.623Z,10.23
2022-10-13T01:18:12.340Z,8.93
2022-10-13T01:23:52.142Z,8.18
2022-10-13T01:29:28.664Z,7.90
2022-10-13T01:34:40.588Z,8.23
2022-10-13T01:39:48.712Z,8.77
2022-10-13T01:44:58.879Z,8.15
2022-10-13T02:03:22.378Z,7.80
2022-10-13T02:08:45.537Z,7.38
2022-10-13T02:14:09.091Z,7.22
2022-10-13T02:19:14.721Z,7.45
2022-10-13T02:24:16.753Z,6.97
2022-10-13T02:29:19.040Z,7.85
2022-10-13T02:34:20.784Z,7.05
2022-10-13T02:39:22.528Z,6.93
2022-10-13T02:44:24.918Z,6.68
2022-10-13T02:49:26.628Z,7.35
2022-10-13T02:54:28.400Z,7.03
2022-10-13T02:59:30.616Z,6.82
2022-10-13T03:04:32.470Z,7.15
2022-10-13T03:09:34.216Z,7.15
2022-10-13T03:14:36.062Z,7.50
2022-10-13T03:19:37.931Z,7.50
2022-10-13T03:24:39.655Z,7.05
2022-10-13T03:29:41.569Z,6.53
2022-10-13T03:34:43.276Z,7.32
2022-10-13T03:39:45.135Z,7.88
2022-10-13T03:44:52.351Z,7.40
2022-10-13T03:49:57.239Z,7.68
2022-10-13T03:54:59.242Z,8.52
2022-10-13T04:00:01.751Z,8.82
2022-10-13T04:05:03.815Z,9.05
2022-10-13T04:10:10.212Z,8.48
2022-10-13T04:15:13.070Z,8.57
2022-10-13T04:20:14.909Z,9.05
2022-10-13T04:25:16.717Z,9.10
2022-10-13T04:30:18.455Z,8.35
2022-10-13T04:35:20.207Z,8.60
2022-10-13T04:40:22.501Z,9.18
2022-10-13T04:45:24.217Z,9.10
2022-10-13T04:50:25.975Z,8.82
2022-10-13T04:55:27.788Z,8.95
2022-10-13T05:00:29.641Z,8.82
2022-10-13T05:05:34.719Z,9.40
2022-10-13T05:10:36.563Z,9.30
2022-10-13T05:15:39.400Z,9.52
2022-10-13T05:20:41.163Z,10.55
2022-10-13T05:25:43.192Z,13.20
2022-10-13T05:30:44.919Z,11.27
2022-10-13T05:35:46.685Z,11.68
2022-10-13T05:40:48.705Z,12.43
2022-10-13T05:45:50.416Z,12.35
2022-10-13T05:50:52.732Z,10.25
2022-10-13T05:55:57.552Z,10.65
2022-10-13T06:00:59.399Z,10.63
2022-10-13T06:06:01.479Z,9.82
2022-10-13T06:11:04.130Z,9.20
2022-10-13T06:16:06.087Z,8.30
2022-10-13T06:21:07.844Z,8.20
2022-10-13T06:26:09.563Z,7.78
2022-10-13T06:31:11.347Z,8.25
2022-10-13T06:36:13.123Z,6.05
2022-10-13T06:41:15.178Z,7.35
2022-10-13T06:46:17.311Z,7.97
2022-10-13T06:51:19.410Z,8.02
2022-10-13T06:56:21.236Z,8.75
2022-10-13T07:01:23.055Z,10.10
2022-10-13T07:06:25.220Z,8.73
2022-10-13T07:11:27.061Z,9.20
2022-10-13T07:16:28.856Z,8.43
2022-10-13T07:21:30.783Z,7.32
2022-10-13T07:26:33.925Z,8.00
2022-10-13T07:31:35.664Z,7.32
2022-10-13T07:36:40.640Z,6.32
2022-10-13T07:41:42.394Z,7.70
2022-10-13T07:46:44.262Z,6.35
2022-10-13T07:51:45.974Z,6.53
2022-10-13T07:56:52.606Z,6.82
2022-10-13T08:01:54.435Z,8.98
2022-10-13T08:06:56.231Z,8.50
2022-10-13T08:12:00.928Z,8.45
2022-10-13T08:17:03.639Z,7.57
2022-10-13T08:22:09.176Z,8.13
2022-10-13T08:27:21.991Z,9.18
2022-10-13T08:32:23.885Z,9.07
2022-10-13T08:37:25.635Z,10.15
2022-10-13T08:42:27.650Z,9.98
2022-10-13T08:47:45.011Z,10.52
2022-10-13T08:53:02.783Z,9.27
2022-10-13T08:58:19.368Z,9.90
2022-10-13T09:03:29.120Z,9.45
2022-10-13T09:08:39.701Z,9.32
2022-10-13T09:13:41.487Z,9.70
2022-10-13T09:18:43.420Z,9.98
2022-10-13T09:23:45.738Z,9.05
2022-10-13T09:28:48.282Z,9.30
2022-10-13T09:34:03.048Z,8.63
2022-10-13T09:39:07.011Z,8.52
2022-10-13T09:44:19.600Z,8.80
2022-10-13T09:49:41.271Z,8.43
2022-10-13T09:54:48.045Z,8.88
2022-10-13T09:59:53.998Z,8.70
2022-10-13T10:05:00.034Z,7.55
2022-10-13T10:10:13.258Z,7.72
2022-10-13T10:15:21.999Z,6.63
2022-10-13T10:20:39.033Z,7.82
2022-10-13T10:25:45.546Z,6.57
2022-10-13T10:30:57.604Z,6.22
2022-10-13T10:36:08.675Z,5.75
2022-10-13T10:41:23.438Z,5.20
2022-10-13T10:46:30.542Z,4.80
2022-10-13T10:51:36.708Z,5.60
2022-10-13T10:56:49.231Z,5.40
2022-10-13T11:02:30.402Z,5.22
2022-10-13T11:07:32.116Z,4.97
2022-10-13T11:12:52.226Z,4.30
2022-10-13T11:17:54.459Z,4.82
2022-10-13T11:22:59.327Z,5.50
2022-10-13T11:28:21.070Z,5.50
2022-10-13T11:33:35.147Z,5.90
2022-10-13T11:38:38.803Z,5.93
2022-10-13T11:44:15.684Z,6.07
2022-10-13T11:49:46.863Z,6.45
2022-10-13T11:54:56.911Z,6.13
2022-10-13T11:59:58.781Z,5.70
2022-10-13T12:05:20.860Z,5.70
2022-10-13T12:10:35.510Z,5.35
2022-10-13T12:15:43.341Z,5.50
2022-10-13T12:20:56.349Z,5.95
2022-10-13T12:25:59.107Z,5.03
2022-10-13T12:31:01.160Z,5.15
2022-10-13T12:36:13.065Z,4.70
2022-10-13T12:41:28.605Z,4.68
2022-10-13T12:46:43.707Z,4.72
2022-10-13T12:51:48.224Z,4.32
2022-10-13T12:56:55.291Z,3.95
2022-10-13T13:02:01.511Z,7.10
2022-10-13T13:07:05.694Z,4.25
2022-10-13T13:12:13.354Z,4.88
2022-10-13T13:17:33.029Z,5.35
2022-10-13T13:22:39.571Z,4.65
2022-10-13T13:27:41.293Z,4.85
2022-10-13T13:32:43.092Z,4.90
2022-10-13T13:37:53.170Z,5.07
2022-10-13T13:42:55.824Z,5.72
2022-10-13T13:48:00.707Z,5.15
2022-10-13T13:53:02.845Z,5.97
2022-10-13T13:58:04.544Z,6.20
2022-10-13T14:03:06.449Z,6.85
2022-10-13T14:08:08.524Z,6.40
2022-10-13T14:13:10.316Z,6.85
2022-10-13T14:18:13.448Z,6.15
2022-10-13T14:23:15.259Z,6.50
2022-10-13T14:28:18.469Z,6.32
2022-10-13T14:33:20.446Z,5.90
2022-10-13T14:38:22.191Z,7.78
2022-10-13T14:43:23.954Z,7.07
2022-10-13T14:48:25.684Z,7.47
2022-10-13T14:53:28.408Z,7.50
2022-10-13T14:58:30.350Z,7.88
2022-10-13T15:03:32.412Z,8.73
2022-10-13T15:08:34.211Z,9.02
2022-10-13T15:13:36.457Z,8.50
2022-10-13T15:18:38.467Z,9.65
2022-10-13T15:23:40.605Z,9.75
2022-10-13T15:28:45.080Z,10.70
2022-10-13T15:33:49.679Z,9.85
2022-10-13T15:38:52.039Z,10.93
2022-10-13T15:43:53.875Z,11.00
2022-10-13T15:48:55.865Z,11.40
2022-10-13T15:53:57.612Z,12.00
2022-10-13T15:58:59.348Z,11.80
2022-10-13T16:04:01.043Z,12.80
2022-10-13T16:09:03.129Z,13.40
2022-10-13T16:14:04.996Z,14.00
2022-10-13T16:19:06.752Z,13.80
2022-10-13T16:24:08.795Z,13.60
2022-10-13T16:29:10.534Z,14.98
2022-10-13T16:34:12.254Z,13.93
2022-10-13T16:39:14.016Z,14.40
2022-10-13T16:44:16.823Z,14.32
2022-10-13T16:49:18.617Z,13.20
2022-10-13T16:54:20.339Z,13.38
2022-10-13T16:59:22.088Z,13.45
2022-10-13T17:04:24.456Z,13.52
2022-10-13T17:09:26.304Z,13.38
2022-10-13T17:14:28.062Z,12.95
2022-10-13T17:19:29.814Z,13.90
2022-10-13T17:24:31.519Z,13.90
2022-10-13T17:29:33.265Z,13.05
2022-10-13T17:34:36.566Z,12.80
2022-10-13T17:39:39.734Z,12.52
2022-10-13T17:44:42.745Z,12.68
2022-10-13T17:49:44.460Z,11.90
2022-10-13T17:54:46.178Z,12.55
2022-10-13T17:59:47.910Z,12.45
2022-10-13T18:04:49.619Z,12.38
2022-10-13T18:09:52.777Z,10.98
2022-10-13T18:14:54.548Z,12.80
2022-10-13T18:19:57.802Z,12.45
2022-10-13T18:24:59.548Z,12.30
2022-10-13T18:30:01.291Z,13.02
2022-10-13T18:35:03.023Z,13.23
2022-10-13T18:40:05.179Z,14.32
2022-10-13T18:45:07.443Z,13.13
2022-10-13T18:50:10.359Z,12.93
2022-10-13T18:55:12.105Z,12.80
2022-10-13T19:00:14.304Z,13.77
2022-10-13T19:05:16.077Z,13.77
2022-10-13T19:10:17.847Z,13.20
2022-10-13T19:15:19.561Z,13.73
2022-10-13T19:20:21.286Z,13.82
2022-10-13T19:25:23.134Z,14.35
2022-10-13T19:30:27.666Z,14.93
2022-10-13T19:35:29.534Z,14.38
2022-10-13T19:40:31.656Z,14.70
2022-10-13T19:45:33.363Z,14.95
2022-10-13T19:50:35.115Z,15.40
2022-10-13T19:55:44.444Z,15.98
2022-10-13T20:00:46.907Z,15.48
2022-10-13T20:05:48.705Z,16.20
2022-10-13T20:10:50.440Z,17.60
2022-10-13T20:15:52.256Z,17.13
2022-10-13T20:20:53.996Z,16.02
2022-10-13T20:25:55.735Z,16.65
2022-10-13T20:30:58.446Z,15.85
2022-10-13T20:36:06.692Z,17.58
2022-10-13T20:41:10.441Z,17.10
2022-10-13T20:46:12.584Z,15.75
2022-10-13T20:51:16.455Z,16.42
2022-10-13T20:56:21.333Z,15.98
2022-10-13T21:01:23.578Z,16.15
2022-10-13T21:06:25.957Z,15.57
2022-10-13T21:11:27.820Z,15.07
2022-10-13T21:16:29.620Z,15.73
2022-10-13T21:21:34.340Z,16.50
2022-10-13T21:26:36.791Z,16.90
2022-10-13T21:31:38.508Z,15.60
2022-10-13T21:36:44.252Z,16.70
2022-10-13T21:41:45.968Z,16.25
2022-10-13T21:46:47.683Z,15.57
2022-10-13T21:51:49.405Z,16.08
2022-10-13T21:56:51.190Z,15.23
2022-10-13T22:01:52.923Z,15.60
2022-10-13T22:06:54.686Z,15.45
2022-10-13T22:11:56.735Z,13.93
2022-10-13T22:16:58.532Z,15.30
2022-10-13T22:22:00.319Z,14.48
2022-10-13T22:27:02.098Z,14.38
2022-10-13T22:32:04.242Z,13.63
2022-10-13T22:37:05.995Z,13.98
2022-10-13T22:42:07.736Z,13.50
2022-10-13T22:47:09.608Z,12.80
2022-10-13T22:52:11.345Z,13.10
2022-10-13T22:57:13.087Z,12.13
2022-10-13T23:02:14.826Z,12.48
2022-10-13T23:07:16.568Z,11.52
2022-10-13T23:12:18.279Z,11.88
2022-10-13T23:17:20.469Z,12.40
2022-10-13T23:22:22.411Z,11.27
2022-10-13T23:27:24.209Z,10.82
2022-10-13T23:32:26.017Z,10.60
2022-10-13T23:37:27.741Z,10.40
2022-10-13T23:42:29.477Z,10.27
2022-10-13T23:47:31.480Z,9.80
2022-10-13T23:52:33.317Z,9.35
2022-10-13T23:57:35.080Z,8.88
